createdAt,value
2018-07-30T00:02:04.393Z,100844.02
2018-07-30T00:06:58.966Z,100842.20
2018-07-30T00:11:53.469Z,100846.97
2018-07-30T00:16:47.940Z,100847.16
2018-07-30T00:21:42.829Z,100851.27
2018-07-30T00:26:37.315Z,100845.03
2018-07-30T00:31:31.821Z,100848.47
2018-07-30T00:36:28.860Z,100849.59
2018-07-30T00:41:23.822Z,100850.20
2018-07-30T00:46:18.399Z,100851.28
2018-07-30T00:51:12.730Z,100854.24
2018-07-30T00:56:07.174Z,100849.36
2018-07-30T01:01:01.810Z,100850.73
2018-07-30T01:05:56.349Z,100853.45
2018-07-30T01:10:51.123Z,100860.03
2018-07-30T01:15:46.466Z,100870.17
2018-07-30T01:20:40.844Z,100869.67
2018-07-30T01:25:36.111Z,100872.48
2018-07-30T01:30:30.814Z,100865.69
2018-07-30T01:35:25.576Z,100865.02
2018-07-30T01:40:20.143Z,100862.95
2018-07-30T01:45:14.677Z,100865.82
2018-07-30T01:50:09.257Z,100870.86
2018-07-30T01:55:03.807Z,100876.42
2018-07-30T01:59:58.240Z,100862.77
2018-07-30T02:04:52.921Z,100867.80
2018-07-30T02:09:48.257Z,100870.86
2018-07-30T02:14:42.748Z,100870.86
2018-07-30T02:19:37.258Z,100873.20
2018-07-30T02:24:32.056Z,100879.94
2018-07-30T02:29:26.951Z,100875.46
2018-07-30T02:34:22.203Z,100879.63
2018-07-30T02:39:16.842Z,100875.04
2018-07-30T02:44:11.512Z,100877.36
2018-07-30T02:49:06.949Z,100883.08
2018-07-30T02:54:01.522Z,100886.55
2018-07-30T02:58:56.197Z,100885.51
2018-07-30T03:03:50.880Z,100895.91
2018-07-30T03:08:45.671Z,100883.55
2018-07-30T03:13:41.017Z,100889.16
2018-07-30T03:18:35.514Z,100887.26
2018-07-30T03:23:30.140Z,100900.52
2018-07-30T03:28:24.621Z,100912.81
2018-07-30T03:33:19.051Z,100905.34
2018-07-30T03:38:13.505Z,100916.42
2018-07-30T03:43:08.324Z,100919.22
2018-07-30T03:48:03.164Z,100923.72
2018-07-30T03:52:57.642Z,100918.47
2018-07-30T03:57:52.183Z,100924.31
2018-07-30T04:02:47.613Z,100923.12
2018-07-30T04:07:42.435Z,100926.64
2018-07-30T04:12:36.960Z,100938.77
2018-07-30T04:17:31.741Z,100933.74
2018-07-30T04:22:26.193Z,100933.22
2018-07-30T04:27:20.477Z,100938.14
2018-07-30T04:32:15.283Z,100945.09
2018-07-30T04:37:09.794Z,100949.69
2018-07-30T04:42:04.404Z,100956.31
2018-07-30T04:46:58.905Z,100949.88
2018-07-30T04:51:53.422Z,100957.72
2018-07-30T04:56:47.792Z,100949.63
2018-07-30T05:01:42.819Z,100952.69
2018-07-30T05:06:37.793Z,100947.80
2018-07-30T05:11:32.324Z,100948.24
2018-07-30T05:16:27.337Z,100962.48
2018-07-30T05:21:21.765Z,100960.67
2018-07-30T05:26:16.577Z,100957.06
2018-07-30T05:31:11.154Z,100957.00
2018-07-30T05:36:05.924Z,100960.59
2018-07-30T05:41:00.082Z,100962.66
2018-07-30T05:45:54.532Z,100968.02
2018-07-30T05:50:49.249Z,100967.75
2018-07-30T05:55:43.983Z,100970.86
2018-07-30T06:00:38.515Z,100967.55
2018-07-30T06:05:33.301Z,100972.52
2018-07-30T06:10:28.656Z,100971.61
2018-07-30T06:15:23.594Z,100974.66
2018-07-30T06:20:18.600Z,100975.08
2018-07-30T06:25:13.345Z,100977.81
2018-07-30T06:30:08.650Z,100983.33
2018-07-30T06:35:05.180Z,100985.96
2018-07-30T06:40:00.056Z,100991.57
2018-07-30T06:44:54.995Z,100971.00
2018-07-30T06:49:49.884Z,100974.34
2018-07-30T06:54:44.605Z,100979.87
2018-07-30T06:59:39.488Z,100991.61
2018-07-30T07:04:34.338Z,100993.52
2018-07-30T07:09:29.123Z,100996.99
2018-07-30T07:14:23.836Z,101002.59
2018-07-30T07:19:18.671Z,101003.82
2018-07-30T07:24:13.468Z,101003.63
2018-07-30T07:29:08.478Z,101000.55
2018-07-30T07:34:04.073Z,101007.20
2018-07-30T07:38:58.714Z,101015.94
2018-07-30T07:43:54.353Z,101010.42
2018-07-30T07:48:49.166Z,101014.57
2018-07-30T07:53:43.884Z,101013.50
2018-07-30T07:58:39.295Z,101005.37
2018-07-30T08:03:34.270Z,101000.36
2018-07-30T08:08:29.223Z,100996.96
2018-07-30T08:13:23.986Z,100997.00
2018-07-30T08:18:18.940Z,100994.13
2018-07-30T08:23:13.961Z,100985.67
2018-07-30T08:28:08.892Z,100990.23
2018-07-30T08:33:04.256Z,100992.87
2018-07-30T08:37:59.164Z,101002.59
2018-07-30T08:42:53.919Z,101009.14
2018-07-30T08:47:48.385Z,101007.48
2018-07-30T08:52:43.340Z,101002.85
2018-07-30T08:57:37.942Z,101009.88
2018-07-30T09:02:32.898Z,101004.63
2018-07-30T09:07:27.692Z,101004.66
2018-07-30T09:12:22.475Z,101009.78
2018-07-30T09:17:17.392Z,101002.99
2018-07-30T09:22:12.446Z,101010.13
2018-07-30T09:27:07.636Z,100998.52
2018-07-30T09:32:07.122Z,101010.69
2018-07-30T09:37:01.877Z,101005.32
2018-07-30T09:41:56.424Z,100999.98
2018-07-30T09:46:51.312Z,101001.75
2018-07-30T09:51:46.058Z,101006.44
2018-07-30T09:56:41.800Z,101007.61
2018-07-30T10:01:36.632Z,100983.95
2018-07-30T10:06:31.712Z,100975.32
2018-07-30T10:11:26.633Z,100974.30
2018-07-30T10:16:25.373Z,100969.05
2018-07-30T10:21:20.100Z,100950.39
2018-07-30T10:26:14.998Z,100953.84
2018-07-30T10:31:10.185Z,100944.53
2018-07-30T10:36:04.920Z,100947.19
2018-07-30T10:40:59.640Z,100937.28
2018-07-30T10:45:54.568Z,100930.26
2018-07-30T10:50:49.386Z,100934.73
2018-07-30T10:55:44.134Z,100921.09
2018-07-30T11:00:38.642Z,100917.46
2018-07-30T11:05:33.148Z,100908.55
2018-07-30T11:10:27.882Z,100906.45
2018-07-30T11:15:22.475Z,100904.48
2018-07-30T11:20:16.914Z,100908.01
2018-07-30T11:25:11.822Z,100905.58
2018-07-30T11:30:07.306Z,100888.06
2018-07-30T11:35:02.053Z,100891.24
2018-07-30T11:39:56.858Z,100879.20
2018-07-30T11:44:51.761Z,100878.73
2018-07-30T11:49:46.450Z,100875.34
2018-07-30T11:54:41.181Z,100868.78
2018-07-30T11:59:35.756Z,100862.06
2018-07-30T12:04:30.733Z,100853.41
2018-07-30T12:09:25.651Z,100862.29
2018-07-30T12:14:20.396Z,100870.36
2018-07-30T12:19:15.110Z,100858.07
2018-07-30T12:24:09.842Z,100857.78
2018-07-30T12:29:04.753Z,100856.99
2018-07-30T12:33:59.540Z,100848.48
2018-07-30T12:38:54.248Z,100848.95
2018-07-30T12:43:49.425Z,100839.03
2018-07-30T12:48:44.156Z,100838.49
2018-07-30T12:53:39.069Z,100837.14
2018-07-30T12:58:34.055Z,100826.97
2018-07-30T13:03:28.584Z,100824.19
2018-07-30T13:08:23.314Z,100830.48
2018-07-30T13:13:18.245Z,100820.72
2018-07-30T13:18:13.274Z,100823.75
2018-07-30T13:23:08.237Z,100810.02
2018-07-30T13:28:03.003Z,100812.20
2018-07-30T13:32:58.284Z,100813.92
2018-07-30T13:37:53.163Z,100810.34
2018-07-30T13:42:47.899Z,100809.08
2018-07-30T13:47:42.402Z,100806.98
2018-07-30T13:52:37.169Z,100805.57
2018-07-30T13:57:32.086Z,100800.84
2018-07-30T14:02:27.116Z,100796.25
2018-07-30T14:07:22.004Z,100796.98
2018-07-30T14:12:16.822Z,100796.13
2018-07-30T14:17:11.539Z,100794.82
2018-07-30T14:22:06.602Z,100787.47
2018-07-30T14:27:01.515Z,100784.53
2018-07-30T14:31:56.344Z,100784.06
2018-07-30T14:36:51.165Z,100778.20
2018-07-30T14:41:46.380Z,100779.66
2018-07-30T14:46:41.600Z,100778.36
2018-07-30T14:51:36.390Z,100777.48
2018-07-30T14:56:31.829Z,100765.45
2018-07-30T15:01:26.345Z,100762.48
2018-07-30T15:06:21.349Z,100754.95
2018-07-30T15:11:15.902Z,100750.08
2018-07-30T15:16:10.788Z,100754.45
2018-07-30T15:21:05.548Z,100753.84
2018-07-30T15:26:00.488Z,100749.95
2018-07-30T15:30:55.381Z,100748.48
2018-07-30T15:35:59.544Z,100750.94
2018-07-30T15:40:54.290Z,100748.34
2018-07-30T15:45:49.412Z,100745.55
2018-07-30T15:50:44.289Z,100742.37
2018-07-30T15:55:39.034Z,100743.09
2018-07-30T16:00:34.258Z,100754.00
2018-07-30T16:05:29.084Z,100750.41
2018-07-30T16:10:24.208Z,100744.52
2018-07-30T16:15:19.136Z,100746.97
2018-07-30T16:20:14.195Z,100746.67
2018-07-30T16:25:08.698Z,100745.31
2018-07-30T16:30:03.751Z,100750.03
2018-07-30T16:34:58.474Z,100749.11
2018-07-30T16:39:53.853Z,100749.72
2018-07-30T16:44:48.405Z,100750.82
2018-07-30T16:49:44.194Z,100759.67
2018-07-30T16:54:38.926Z,100759.05
2018-07-30T16:59:34.689Z,100755.90
2018-07-30T17:04:29.588Z,100756.50
2018-07-30T17:09:24.817Z,100753.44
2018-07-30T17:14:21.427Z,100761.26
2018-07-30T17:19:16.258Z,100758.20
2018-07-30T17:24:11.018Z,100762.58
2018-07-30T17:29:05.898Z,100758.63
2018-07-30T17:34:00.979Z,100766.54
2018-07-30T17:38:55.936Z,100768.20
2018-07-30T17:43:50.854Z,100768.53
2018-07-30T17:48:46.031Z,100766.70
2018-07-30T17:53:40.734Z,100771.55
2018-07-30T17:58:35.646Z,100771.00
2018-07-30T18:03:30.670Z,100778.06
2018-07-30T18:08:25.418Z,100774.94
2018-07-30T18:13:20.148Z,100776.63
2018-07-30T18:18:16.582Z,100775.75
2018-07-30T18:23:11.543Z,100786.14
2018-07-30T18:28:06.356Z,100789.70
2018-07-30T18:33:01.309Z,100799.19
2018-07-30T18:37:56.340Z,100792.81
2018-07-30T18:42:50.954Z,100799.80
2018-07-30T18:47:45.594Z,100795.26
2018-07-30T18:52:40.680Z,100798.34
2018-07-30T18:57:36.139Z,100807.45
2018-07-30T19:02:32.464Z,100812.34
2018-07-30T19:07:29.205Z,100812.80
2018-07-30T19:12:25.219Z,100817.13
2018-07-30T19:17:20.678Z,100818.91
2018-07-30T19:22:21.266Z,100827.31
2018-07-30T19:27:18.069Z,100842.66
2018-07-30T19:32:14.674Z,100843.66
2018-07-30T19:37:11.011Z,100845.78
2018-07-30T19:42:09.217Z,100852.30
2018-07-30T19:47:06.673Z,100856.09
2018-07-30T19:52:04.205Z,100855.90
2018-07-30T19:57:00.280Z,100860.25
2018-07-30T20:01:56.687Z,100865.94
2018-07-30T20:06:52.905Z,100866.67
2018-07-30T20:11:49.076Z,100874.02
2018-07-30T20:16:45.117Z,100880.80
2018-07-30T20:21:48.166Z,100878.72
2018-07-30T20:26:44.329Z,100882.30
2018-07-30T20:31:41.432Z,100882.12
2018-07-30T20:36:37.138Z,100881.39
2018-07-30T20:41:33.549Z,100886.62
2018-07-30T20:46:29.599Z,100885.38
2018-07-30T20:51:24.821Z,100897.03
2018-07-30T20:56:20.510Z,100896.20
2018-07-30T21:01:15.478Z,100900.38
2018-07-30T21:06:10.507Z,100901.52
2018-07-30T21:11:07.363Z,100898.42
2018-07-30T21:16:03.776Z,100907.70
2018-07-30T21:20:59.204Z,100907.95
2018-07-30T21:25:54.883Z,100912.61
2018-07-30T21:30:49.957Z,100922.38
2018-07-30T21:35:45.261Z,100922.14
2018-07-30T21:40:40.137Z,100922.75
2018-07-30T21:45:34.959Z,100923.62
2018-07-30T21:50:30.540Z,100924.05
2018-07-30T21:55:25.788Z,100925.29
2018-07-30T22:00:25.233Z,100932.23
2018-07-30T22:05:20.828Z,100947.39
2018-07-30T22:10:15.966Z,100947.45
2018-07-30T22:15:13.383Z,100951.89
2018-07-30T22:20:09.884Z,100946.52
2018-07-30T22:25:04.397Z,100951.94
2018-07-30T22:30:00.304Z,100948.38
2018-07-30T22:34:55.062Z,100946.83
2018-07-30T22:39:50.821Z,100942.99
2018-07-30T22:44:45.622Z,100948.47
2018-07-30T22:49:40.919Z,100953.44
2018-07-30T22:54:35.637Z,100949.09
2018-07-30T22:59:30.588Z,100945.36
2018-07-30T23:04:25.078Z,100944.58
2018-07-30T23:09:19.820Z,100935.09
2018-07-30T23:14:14.056Z,100943.77
2018-07-30T23:19:08.689Z,100947.54
2018-07-30T23:24:11.679Z,100945.86
2018-07-30T23:29:06.180Z,100950.81
2018-07-30T23:34:00.649Z,100944.06
2018-07-30T23:38:55.205Z,100940.38
2018-07-30T23:43:50.979Z,100937.70
2018-07-30T23:48:45.957Z,100942.78
2018-07-30T23:53:40.436Z,100941.09
2018-07-30T23:58:35.018Z,100946.52
